Time;durP1;ratioP1;P1;durP2;ratioP2;P2;SDS_P1;SDS_P2;PMS_P1;PMS_P2;Temp;Humidity;BMP_temperature;BMP_pressure;BME280_temperature;BME280_humidity;BME280_pressure;Samples;Min_cycle;Max_cycle;Signal;HPM_P1;HPM_P2
2023/10/04 00:00:54;;;;;;;4.22;1.75;;;12.60;99.90;;;;;;5076570;28;20045;-79
2023/10/04 00:03:23;;;;;;;3.88;1.58;;;12.60;99.90;;;;;;5076039;28;20052;-77
2023/10/04 00:05:49;;;;;;;4.47;1.55;;;12.60;99.90;;;;;;5075289;28;20052;-78
2023/10/04 00:08:14;;;;;;;3.50;1.65;;;12.50;99.90;;;;;;5075879;28;20470;-80
2023/10/04 00:10:40;;;;;;;4.63;1.67;;;12.50;99.90;;;;;;5075865;28;20105;-78
2023/10/04 00:13:06;;;;;;;5.75;1.70;;;12.50;99.90;;;;;;5074641;28;20044;-79
2023/10/04 00:15:31;;;;;;;3.97;1.20;;;12.60;99.90;;;;;;5076365;28;20045;-79
2023/10/04 00:17:57;;;;;;;5.20;1.50;;;12.60;99.90;;;;;;5074460;28;20371;-78
2023/10/04 00:20:31;;;;;;;5.57;1.63;;;12.60;99.90;;;;;;5074581;28;20094;-79
2023/10/04 00:22:57;;;;;;;4.20;1.50;;;12.60;99.90;;;;;;5076289;28;20091;-79
2023/10/04 00:25:24;;;;;;;3.33;1.40;;;12.50;99.90;;;;;;5075637;28;20097;-77
2023/10/04 00:27:52;;;;;;;3.33;1.70;;;12.40;99.90;;;;;;5074269;28;20036;-78
2023/10/04 00:30:18;;;;;;;5.72;1.85;;;12.40;99.90;;;;;;5075393;28;20044;-79
2023/10/04 00:32:47;;;;;;;3.25;1.70;;;12.40;99.90;;;;;;5075449;28;20080;-79
2023/10/04 00:35:21;;;;;;;4.68;1.98;;;12.40;99.90;;;;;;5075219;28;20052;-78
2023/10/04 00:37:55;;;;;;;3.95;1.70;;;12.40;99.90;;;;;;5076043;28;20064;-77
2023/10/04 00:40:22;;;;;;;4.13;1.65;;;12.40;99.90;;;;;;5075172;28;20067;-78
2023/10/04 00:42:49;;;;;;;4.20;1.63;;;12.40;99.90;;;;;;5075398;28;20056;-77
2023/10/04 00:45:22;;;;;;;4.00;1.58;;;12.40;99.90;;;;;;5075723;28;20434;-78
2023/10/04 00:47:51;;;;;;;4.65;1.67;;;12.40;99.90;;;;;;5075157;28;20106;-79
2023/10/04 00:50:22;;;;;;;5.00;1.83;;;12.40;99.90;;;;;;5075127;28;20057;-78
2023/10/04 00:53:11;;;;;;;4.07;2.00;;;12.40;99.90;;;;;;5075392;28;20040;-76
2023/10/04 00:55:40;;;;;;;6.03;1.70;;;12.30;99.90;;;;;;5074933;28;20470;-79
2023/10/04 00:58:07;;;;;;;4.28;1.70;;;12.20;99.90;;;;;;5074797;28;20456;-77
2023/10/04 01:00:36;;;;;;;4.43;2.17;;;12.20;99.90;;;;;;5074833;28;20040;-78
2023/10/04 01:03:02;;;;;;;6.53;1.70;;;12.20;99.90;;;;;;5074675;28;20095;-77
2023/10/04 01:05:29;;;;;;;4.55;1.80;;;12.10;99.90;;;;;;5074724;28;20052;-77
2023/10/04 01:07:56;;;;;;;4.35;1.80;;;12.10;99.90;;;;;;5074691;28;20052;-76
2023/10/04 01:10:30;;;;;;;3.40;1.65;;;12.10;99.90;;;;;;5074693;28;20511;-78
2023/10/04 01:12:56;;;;;;;4.88;1.80;;;12.10;99.90;;;;;;5075226;28;20048;-79
2023/10/04 01:15:36;;;;;;;4.25;1.58;;;12.00;99.90;;;;;;5074649;28;20052;-78
2023/10/04 01:18:07;;;;;;;4.25;1.83;;;12.00;99.90;;;;;;5073382;28;20040;-78
2023/10/04 01:20:33;;;;;;;5.43;1.63;;;11.90;99.90;;;;;;5074271;28;20043;-77
2023/10/04 01:23:06;;;;;;;3.92;1.52;;;11.90;99.90;;;;;;5074990;28;20090;-77
2023/10/04 01:25:37;;;;;;;4.68;1.55;;;11.90;99.90;;;;;;5074433;28;20044;-77
2023/10/04 01:28:12;;;;;;;5.10;1.75;;;11.90;99.90;;;;;;5074332;28;20464;-78
2023/10/04 01:30:41;;;;;;;2.83;1.50;;;11.90;99.90;;;;;;5074424;28;20135;-77
2023/10/04 01:33:15;;;;;;;3.08;1.40;;;11.90;99.90;;;;;;5073317;28;20052;-77
2023/10/04 01:35:42;;;;;;;3.67;1.42;;;11.90;99.90;;;;;;5074720;28;20056;-78
2023/10/04 01:38:08;;;;;;;3.08;1.30;;;12.00;99.90;;;;;;5073993;28;20048;-78
2023/10/04 01:40:35;;;;;;;3.72;1.30;;;12.00;99.90;;;;;;5073673;28;20036;-78
2023/10/04 01:43:14;;;;;;;2.42;1.33;;;11.90;99.90;;;;;;5074243;28;20125;-78
2023/10/04 01:46:00;;;;;;;3.35;1.40;;;12.00;99.90;;;;;;5074148;28;20084;-77
2023/10/04 01:48:27;;;;;;;3.40;1.60;;;11.90;99.90;;;;;;5074336;28;20059;-77
2023/10/04 01:50:53;;;;;;;5.60;1.45;;;11.90;99.90;;;;;;5073929;28;20275;-77
2023/10/04 01:53:24;;;;;;;4.60;1.30;;;11.90;99.90;;;;;;5074803;28;20101;-76
2023/10/04 01:55:50;;;;;;;3.15;1.05;;;11.80;99.90;;;;;;5074759;28;20051;-78
2023/10/04 01:58:18;;;;;;;5.28;1.88;;;11.70;99.90;;;;;;5073811;28;20044;-77
2023/10/04 02:00:44;;;;;;;3.05;1.23;;;11.70;99.90;;;;;;5073841;28;20055;-77
2023/10/04 02:03:10;;;;;;;3.15;1.30;;;11.70;99.90;;;;;;5073890;28;20048;-78
2023/10/04 02:05:40;;;;;;;5.90;1.25;;;11.60;99.90;;;;;;5074392;28;20049;-78
2023/10/04 02:08:09;;;;;;;2.83;1.33;;;11.70;99.90;;;;;;5073731;28;20405;-78
2023/10/04 02:10:35;;;;;;;3.33;1.33;;;11.60;99.90;;;;;;5073966;28;20405;-78
2023/10/04 02:13:06;;;;;;;3.38;1.30;;;11.60;99.90;;;;;;5072652;28;20060;-78
2023/10/04 02:15:37;;;;;;;3.58;1.02;;;11.60;99.90;;;;;;5074267;28;20044;-77
2023/10/04 02:18:04;;;;;;;5.10;1.27;;;11.60;99.90;;;;;;5074151;28;20041;-78
2023/10/04 02:20:33;;;;;;;5.30;1.58;;;11.60;99.90;;;;;;5073529;28;20052;-78
2023/10/04 02:22:59;;;;;;;4.43;1.40;;;11.60;99.90;;;;;;5073567;28;20088;-76
2023/10/04 02:25:25;;;;;;;6.65;1.30;;;11.60;99.90;;;;;;5074118;28;20052;-77
2023/10/04 02:27:55;;;;;;;4.45;1.60;;;11.60;99.90;;;;;;5073552;28;20059;-77
2023/10/04 02:30:25;;;;;;;4.80;1.40;;;11.60;99.90;;;;;;5073460;28;20057;-78
2023/10/04 02:32:50;;;;;;;4.15;1.27;;;11.70;99.90;;;;;;5073513;28;20056;-77
2023/10/04 02:35:24;;;;;;;5.90;1.73;;;11.80;99.90;;;;;;5074229;28;20512;-78
2023/10/04 02:37:54;;;;;;;5.97;1.58;;;11.80;99.90;;;;;;5073977;28;20037;-78
2023/10/04 02:40:22;;;;;;;6.18;1.77;;;11.80;99.90;;;;;;5073996;28;20041;-77
2023/10/04 02:42:49;;;;;;;4.00;1.45;;;11.80;99.90;;;;;;5073154;28;20064;-78
2023/10/04 02:45:21;;;;;;;4.72;1.55;;;11.80;99.90;;;;;;5074189;28;20053;-79
2023/10/04 02:47:52;;;;;;;3.47;1.80;;;11.80;99.90;;;;;;5072458;28;20049;-78
2023/10/04 02:50:19;;;;;;;3.92;1.92;;;11.80;99.90;;;;;;5073801;28;20398;-76
2023/10/04 02:52:46;;;;;;;6.00;1.63;;;11.80;99.90;;;;;;5075381;28;20057;-78
2023/10/04 02:55:17;;;;;;;3.72;1.67;;;11.90;99.90;;;;;;5077392;28;20060;-79
2023/10/04 02:57:44;;;;;;;7.72;1.50;;;11.90;99.90;;;;;;5076210;28;20068;-77
2023/10/04 03:00:17;;;;;;;5.78;1.77;;;11.90;99.90;;;;;;5077286;28;20131;-76
2023/10/04 03:02:48;;;;;;;4.43;1.92;;;11.90;99.90;;;;;;5076848;28;20048;-77
2023/10/04 03:05:18;;;;;;;3.70;1.77;;;11.90;99.90;;;;;;5077048;28;20055;-77
2023/10/04 03:07:43;;;;;;;3.35;1.60;;;11.90;99.90;;;;;;5076951;28;20047;-75
2023/10/04 03:10:13;;;;;;;4.30;1.70;;;11.80;99.90;;;;;;5077013;28;20044;-78
2023/10/04 03:12:41;;;;;;;6.65;2.20;;;11.70;99.90;;;;;;5076167;28;20388;-77
2023/10/04 03:15:07;;;;;;;5.22;1.83;;;11.60;99.90;;;;;;5076280;28;20044;-77
2023/10/04 03:17:33;;;;;;;4.95;2.22;;;11.50;99.90;;;;;;5076908;28;20037;-77
2023/10/04 03:20:00;;;;;;;3.85;1.63;;;11.50;99.90;;;;;;5076745;28;20056;-79
2023/10/04 03:22:26;;;;;;;4.68;1.73;;;11.50;99.90;;;;;;5076542;28;20405;-78
2023/10/04 03:24:53;;;;;;;5.97;2.40;;;11.50;99.90;;;;;;5075749;28;20052;-78
2023/10/04 03:27:21;;;;;;;5.45;1.90;;;11.50;99.90;;;;;;5076723;28;20045;-78
2023/10/04 03:29:52;;;;;;;5.95;1.92;;;11.60;99.90;;;;;;5076610;28;20058;-74
2023/10/04 03:32:18;;;;;;;7.15;2.10;;;11.60;99.90;;;;;;5075978;28;20048;-77
2023/10/04 03:34:44;;;;;;;4.65;1.90;;;11.60;99.90;;;;;;5075460;28;20131;-77
2023/10/04 03:37:20;;;;;;;5.05;1.80;;;11.60;99.90;;;;;;5076248;28;20053;-77
2023/10/04 03:39:46;;;;;;;5.38;2.00;;;11.60;99.90;;;;;;5075386;28;20177;-77
2023/10/04 03:42:12;;;;;;;4.72;1.90;;;11.50;99.90;;;;;;5076064;28;20098;-76
2023/10/04 03:44:37;;;;;;;6.38;1.92;;;11.40;99.90;;;;;;5077024;28;20045;-78
2023/10/04 03:47:03;;;;;;;5.10;1.98;;;11.40;99.90;;;;;;5076966;28;20182;-77
2023/10/04 03:49:29;;;;;;;2.88;1.60;;;11.30;99.90;;;;;;5076323;28;20067;-78
2023/10/04 03:51:56;;;;;;;4.10;1.85;;;11.30;99.90;;;;;;5076866;28;20051;-77
2023/10/04 03:54:22;;;;;;;4.85;1.83;;;11.20;99.90;;;;;;5075228;28;20084;-77
2023/10/04 03:56:47;;;;;;;5.15;2.00;;;11.20;99.90;;;;;;5076681;28;20465;-77
2023/10/04 03:59:13;;;;;;;5.60;2.15;;;11.20;99.90;;;;;;5076111;28;20067;-77
2023/10/04 04:01:39;;;;;;;3.92;2.25;;;11.10;99.90;;;;;;5076028;28;20049;-77
2023/10/04 04:04:06;;;;;;;6.03;1.90;;;11.20;99.90;;;;;;5075690;28;20044;-77
2023/10/04 04:06:32;;;;;;;6.03;1.90;;;11.10;99.90;;;;;;5075955;28;20123;-76
2023/10/04 04:09:01;;;;;;;4.70;1.85;;;11.10;99.90;;;;;;5075829;28;20123;-78
2023/10/04 04:11:27;;;;;;;5.63;1.73;;;11.10;99.90;;;;;;5074834;28;20083;-77
2023/10/04 04:13:56;;;;;;;4.05;1.55;;;11.10;99.90;;;;;;5074670;28;20048;-77
2023/10/04 04:16:21;;;;;;;5.57;2.33;;;11.10;99.90;;;;;;5074340;28;20494;-79
2023/10/04 04:18:47;;;;;;;7.70;2.30;;;11.10;99.90;;;;;;5075760;28;20050;-74
2023/10/04 04:21:14;;;;;;;3.80;1.80;;;11.10;99.90;;;;;;5076337;28;20398;-78
2023/10/04 04:23:41;;;;;;;6.28;1.83;;;11.10;99.90;;;;;;5075684;28;20482;-78
2023/10/04 04:26:07;;;;;;;5.22;1.88;;;11.10;99.90;;;;;;5075513;28;20119;-77
2023/10/04 04:28:36;;;;;;;4.25;1.80;;;11.00;99.90;;;;;;5074907;28;20128;-76
2023/10/04 04:31:09;;;;;;;3.80;1.80;;;11.00;99.90;;;;;;5076054;28;20119;-77
2023/10/04 04:33:35;;;;;;;6.80;2.08;;;11.00;99.90;;;;;;5075498;28;20049;-77
2023/10/04 04:36:17;;;;;;;4.97;1.80;;;11.00;99.90;;;;;;5075700;28;20044;-78
2023/10/04 04:38:44;;;;;;;4.57;1.77;;;11.00;99.90;;;;;;5075772;28;20048;-78
2023/10/04 04:41:13;;;;;;;6.80;1.75;;;11.00;99.90;;;;;;5074163;28;20052;-78
2023/10/04 04:43:39;;;;;;;3.97;1.70;;;11.00;99.90;;;;;;5075719;28;20389;-76
2023/10/04 04:46:16;;;;;;;4.72;1.77;;;11.00;99.90;;;;;;5075158;28;20074;-76
2023/10/04 04:48:43;;;;;;;8.43;1.83;;;11.00;99.90;;;;;;5074749;28;20093;-77
2023/10/04 04:53:35;;;;;;;4.85;1.70;;;11.00;99.90;;;;;;5075322;28;20087;-76
2023/10/04 04:56:01;;;;;;;4.75;1.88;;;10.90;99.90;;;;;;5074731;28;20102;-76
2023/10/04 04:58:28;;;;;;;5.40;1.67;;;10.90;99.90;;;;;;5074605;28;20037;-76
2023/10/04 05:01:01;;;;;;;6.07;1.73;;;10.90;99.90;;;;;;5074980;28;20045;-76
2023/10/04 05:03:27;;;;;;;4.55;1.90;;;10.90;99.90;;;;;;5074997;28;20045;-77
2023/10/04 05:05:55;;;;;;;5.65;1.83;;;11.00;99.90;;;;;;5074808;28;20041;-77
2023/10/04 05:08:22;;;;;;;5.80;1.92;;;11.00;99.90;;;;;;5074647;28;20059;-76
2023/10/04 05:10:52;;;;;;;7.25;1.90;;;11.00;99.90;;;;;;5074741;28;20131;-78
2023/10/04 05:13:18;;;;;;;6.35;1.83;;;11.10;99.90;;;;;;5073536;28;20132;-78
2023/10/04 05:15:49;;;;;;;6.95;2.20;;;11.10;99.90;;;;;;5074018;28;20076;-77
2023/10/04 05:18:16;;;;;;;4.68;1.83;;;11.20;99.90;;;;;;5074584;28;20040;-78
2023/10/04 05:20:50;;;;;;;7.57;1.92;;;11.20;99.90;;;;;;5074545;28;20088;-77
2023/10/04 05:23:18;;;;;;;5.07;1.98;;;11.20;99.90;;;;;;5074567;28;20045;-77
2023/10/04 05:25:44;;;;;;;4.30;1.83;;;11.20;99.90;;;;;;5074440;28;20044;-77
2023/10/04 05:28:11;;;;;;;4.35;1.85;;;11.20;99.90;;;;;;5074303;28;20080;-77
2023/10/04 05:30:38;;;;;;;9.52;2.00;;;11.30;99.90;;;;;;5074024;28;20485;-78
2023/10/04 05:33:08;;;;;;;8.13;2.00;;;11.30;99.90;;;;;;5074276;28;20055;-76
2023/10/04 05:35:37;;;;;;;4.68;2.00;;;11.30;99.90;;;;;;5074367;28;20476;-77
2023/10/04 05:38:07;;;;;;;4.25;2.03;;;11.20;99.90;;;;;;5073976;28;20037;-78
2023/10/04 05:40:38;;;;;;;5.95;1.80;;;11.20;99.90;;;;;;5074382;28;20048;-78
2023/10/04 05:43:07;;;;;;;7.53;2.08;;;11.20;99.90;;;;;;5073787;28;20068;-78
2023/10/04 05:45:34;;;;;;;5.90;1.90;;;11.20;99.90;;;;;;5074050;28;20045;-77
2023/10/04 05:48:00;;;;;;;5.05;2.00;;;11.20;99.90;;;;;;5074491;28;20175;-77
2023/10/04 05:50:26;;;;;;;3.88;1.52;;;11.20;99.90;;;;;;5073969;28;20135;-77
2023/10/04 05:52:53;;;;;;;7.95;2.58;;;11.20;99.90;;;;;;5074231;28;20538;-76
2023/10/04 05:55:22;;;;;;;6.57;2.30;;;11.20;99.90;;;;;;5073488;28;20516;-75
2023/10/04 05:57:52;;;;;;;2.97;1.45;;;11.20;99.90;;;;;;5074129;28;20051;-77
2023/10/04 06:00:24;;;;;;;8.32;1.98;;;11.20;99.90;;;;;;5074053;28;20404;-78
2023/10/04 06:03:13;;;;;;;4.72;1.90;;;11.20;99.90;;;;;;5073903;28;20054;-77
2023/10/04 06:05:42;;;;;;;4.07;1.52;;;11.20;99.90;;;;;;5074062;28;20489;-77
2023/10/04 06:08:18;;;;;;;4.57;2.00;;;11.20;99.90;;;;;;5073663;28;20044;-78
2023/10/04 06:10:44;;;;;;;3.90;1.65;;;11.20;99.90;;;;;;5073801;28;20040;-77
2023/10/04 06:13:13;;;;;;;4.03;1.55;;;11.30;99.90;;;;;;5073684;28;20045;-76
2023/10/04 06:15:44;;;;;;;6.30;1.95;;;11.30;99.90;;;;;;5072996;28;20417;-76
2023/10/04 06:18:13;;;;;;;5.78;1.75;;;11.30;99.90;;;;;;5072540;28;20114;-66
2023/10/04 06:20:40;;;;;;;7.85;1.98;;;11.30;99.90;;;;;;5073538;28;20080;-66
2023/10/04 06:23:11;;;;;;;5.57;2.10;;;11.40;99.90;;;;;;5072441;28;20059;-66
2023/10/04 06:25:45;;;;;;;5.00;1.92;;;11.40;99.90;;;;;;5073931;28;20040;-66
2023/10/04 06:28:11;;;;;;;6.15;2.15;;;11.50;99.90;;;;;;5073523;28;20435;-67
2023/10/04 06:30:38;;;;;;;4.88;1.85;;;11.50;99.90;;;;;;5073516;28;20041;-67
2023/10/04 06:33:06;;;;;;;5.32;2.33;;;11.50;99.90;;;;;;5073998;28;20052;-66
2023/10/04 06:35:32;;;;;;;5.18;1.85;;;11.50;99.90;;;;;;5073318;28;20052;-66
2023/10/04 06:38:01;;;;;;;5.68;2.40;;;11.50;99.90;;;;;;5073244;28;20048;-66
2023/10/04 06:40:31;;;;;;;7.13;2.67;;;11.50;99.90;;;;;;5073348;28;20055;-66
2023/10/04 06:42:58;;;;;;;5.60;1.95;;;11.60;99.90;;;;;;5072414;28;20080;-66
2023/10/04 06:45:24;;;;;;;4.82;1.90;;;11.60;99.90;;;;;;5073293;28;20044;-67
2023/10/04 06:47:53;;;;;;;6.47;2.08;;;11.70;99.90;;;;;;5073358;28;20036;-66
2023/10/04 06:50:20;;;;;;;8.02;2.28;;;11.70;99.90;;;;;;5073247;28;20119;-66
2023/10/04 06:52:48;;;;;;;5.05;2.30;;;11.70;99.90;;;;;;5073216;28;20048;-66
2023/10/04 06:55:15;;;;;;;5.18;2.00;;;11.70;99.90;;;;;;5073267;28;20044;-66
2023/10/04 06:57:42;;;;;;;5.82;2.03;;;11.80;99.90;;;;;;5073312;28;20049;-66
2023/10/04 07:00:19;;;;;;;5.85;2.47;;;11.80;99.90;;;;;;5073257;28;20048;-66
2023/10/04 07:02:51;;;;;;;6.47;2.60;;;11.80;99.90;;;;;;5073770;28;20132;-66
2023/10/04 07:05:19;;;;;;;6.05;2.20;;;11.80;99.90;;;;;;5073203;28;20055;-66
2023/10/04 07:07:51;;;;;;;7.25;2.22;;;11.90;99.90;;;;;;5072153;28;20060;-66
2023/10/04 07:10:20;;;;;;;5.90;2.00;;;11.90;99.90;;;;;;5073180;28;20055;-66
2023/10/04 07:12:54;;;;;;;4.45;2.08;;;12.00;99.90;;;;;;5073109;28;20048;-66
2023/10/04 07:15:21;;;;;;;4.85;2.40;;;12.10;99.90;;;;;;5073093;28;20059;-66
2023/10/04 07:17:47;;;;;;;7.30;2.25;;;12.20;99.90;;;;;;5072237;28;20051;-66
2023/10/04 07:20:15;;;;;;;6.25;2.20;;;12.30;99.90;;;;;;5072514;28;20050;-67
2023/10/04 07:22:51;;;;;;;5.72;2.13;;;12.30;99.90;;;;;;5072704;28;20053;-66
2023/10/04 07:25:17;;;;;;;4.95;2.10;;;12.40;99.90;;;;;;5073476;28;20055;-67
2023/10/04 07:27:45;;;;;;;5.60;2.08;;;12.40;99.90;;;;;;5073276;28;20052;-67
2023/10/04 07:30:14;;;;;;;6.35;2.10;;;12.40;99.90;;;;;;5071428;28;20059;-67
2023/10/04 07:32:44;;;;;;;4.80;1.95;;;12.50;99.90;;;;;;5071854;28;20049;-67
2023/10/04 07:35:20;;;;;;;4.63;2.13;;;12.50;99.90;;;;;;5071833;28;20555;-66
2023/10/04 07:37:46;;;;;;;7.95;2.10;;;12.50;99.90;;;;;;5073918;28;20043;-66
2023/10/04 07:40:14;;;;;;;5.13;2.10;;;12.60;99.90;;;;;;5076070;28;20044;-68
2023/10/04 07:42:47;;;;;;;4.80;2.22;;;12.60;99.90;;;;;;5076047;28;20114;-67
2023/10/04 07:45:14;;;;;;;3.42;1.98;;;12.70;99.90;;;;;;5076118;28;20173;-66
2023/10/04 07:47:41;;;;;;;7.32;2.53;;;12.60;99.90;;;;;;5075971;28;20095;-67
2023/10/04 07:50:15;;;;;;;5.90;2.55;;;12.70;99.90;;;;;;5075958;28;20052;-67
2023/10/04 07:52:42;;;;;;;4.85;1.88;;;12.80;99.90;;;;;;5076706;28;20205;-67
2023/10/04 07:55:18;;;;;;;8.32;2.00;;;12.90;99.90;;;;;;5075788;28;20051;-67
2023/10/04 07:57:50;;;;;;;6.28;2.35;;;13.00;99.90;;;;;;5075878;28;20091;-66
2023/10/04 08:00:17;;;;;;;5.57;2.63;;;13.10;99.90;;;;;;5076698;28;20465;-67
2023/10/04 08:02:50;;;;;;;5.38;2.22;;;13.20;99.90;;;;;;5076069;28;20052;-66
2023/10/04 08:05:23;;;;;;;5.95;2.10;;;13.30;99.90;;;;;;5075840;28;20131;-65
2023/10/04 08:07:54;;;;;;;5.47;2.10;;;13.40;99.90;;;;;;5076236;28;20050;-65
2023/10/04 08:10:25;;;;;;;6.97;2.10;;;13.50;99.90;;;;;;5075614;28;20136;-66
2023/10/04 08:12:53;;;;;;;8.18;2.30;;;13.70;99.90;;;;;;5076200;28;20429;-66
2023/10/04 08:15:21;;;;;;;6.43;2.30;;;13.70;99.90;;;;;;5075523;28;20076;-65
2023/10/04 08:17:51;;;;;;;6.10;2.20;;;13.80;99.90;;;;;;5074334;28;20466;-65
2023/10/04 08:20:21;;;;;;;7.20;2.50;;;13.90;99.90;;;;;;5075946;28;20052;-66
2023/10/04 08:22:47;;;;;;;6.90;2.10;;;13.90;99.90;;;;;;5075767;28;20071;-66
2023/10/04 08:25:19;;;;;;;4.70;2.05;;;14.00;99.90;;;;;;5075374;28;20474;-66
2023/10/04 08:27:45;;;;;;;3.85;2.25;;;14.00;99.90;;;;;;5076211;28;20080;-66
2023/10/04 08:30:13;;;;;;;8.02;2.17;;;14.10;99.90;;;;;;5075240;28;20063;-65
2023/10/04 08:32:42;;;;;;;5.15;1.80;;;14.10;99.90;;;;;;5075076;28;20142;-65
2023/10/04 08:35:21;;;;;;;6.95;2.65;;;14.20;99.90;;;;;;5075244;28;20059;-65
2023/10/04 08:37:53;;;;;;;4.72;1.70;;;14.30;99.90;;;;;;5075340;28;20040;-65
2023/10/04 08:40:23;;;;;;;4.65;1.67;;;14.40;99.90;;;;;;5075008;28;20052;-65
2023/10/04 08:42:50;;;;;;;8.85;2.10;;;14.40;99.90;;;;;;5074872;28;20057;-66
2023/10/04 08:45:17;;;;;;;5.50;2.25;;;14.50;99.90;;;;;;5075350;28;20441;-66
2023/10/04 08:47:56;;;;;;;5.22;1.83;;;14.60;99.90;;;;;;5074665;28;20128;-66
2023/10/04 08:50:40;;;;;;;5.13;2.15;;;14.60;99.90;;;;;;5075316;28;20063;-66
2023/10/04 08:53:32;;;;;;;7.57;2.40;;;14.70;99.90;;;;;;5075009;28;20056;-66
2023/10/04 08:56:09;;;;;;;7.25;2.72;;;14.80;99.90;;;;;;5074649;28;20431;-66
2023/10/04 08:58:36;;;;;;;6.30;2.08;;;14.90;99.90;;;;;;5075117;28;20050;-66
2023/10/04 09:01:05;;;;;;;6.70;2.13;;;15.00;99.90;;;;;;5074306;28;20485;-66
2023/10/04 09:03:33;;;;;;;5.80;2.08;;;15.10;99.90;;;;;;5074645;28;20370;-66
2023/10/04 09:05:59;;;;;;;6.72;2.70;;;15.10;99.90;;;;;;5074554;28;20078;-66
2023/10/04 09:08:26;;;;;;;6.80;2.15;;;15.20;99.90;;;;;;5074038;28;20503;-66
2023/10/04 09:10:55;;;;;;;6.50;2.30;;;15.20;99.90;;;;;;5074309;28;20044;-66
2023/10/04 09:13:22;;;;;;;6.00;2.00;;;15.30;99.90;;;;;;5074167;28;20044;-66
2023/10/04 09:15:48;;;;;;;5.25;2.35;;;15.40;99.90;;;;;;5074342;28;20516;-65
2023/10/04 09:18:27;;;;;;;4.50;2.28;;;15.50;99.90;;;;;;5075016;28;20076;-66
2023/10/04 09:20:53;;;;;;;3.90;2.00;;;15.50;99.90;;;;;;5075089;28;20370;-66
2023/10/04 09:23:22;;;;;;;5.60;2.00;;;15.60;99.90;;;;;;5074246;28;20048;-67
2023/10/04 09:25:48;;;;;;;7.57;1.95;;;15.60;99.90;;;;;;5073883;28;20036;-66
2023/10/04 09:28:14;;;;;;;7.32;2.55;;;15.60;99.90;;;;;;5074631;28;20040;-67
2023/10/04 09:30:39;;;;;;;6.35;1.98;;;15.80;99.90;;;;;;5074127;28;20037;-66
2023/10/04 09:33:28;;;;;;;6.00;2.20;;;15.70;99.90;;;;;;5074039;28;20040;-66
2023/10/04 09:35:55;;;;;;;5.47;2.05;;;15.70;99.90;;;;;;5073898;28;20048;-67
2023/10/04 09:38:22;;;;;;;7.63;2.30;;;15.80;99.90;;;;;;5073574;28;20491;-66
2023/10/04 09:40:52;;;;;;;6.00;2.10;;;15.80;99.90;;;;;;5073780;28;20049;-66
2023/10/04 09:43:17;;;;;;;5.82;2.03;;;15.90;99.90;;;;;;5074100;28;20064;-66
2023/10/04 09:45:59;;;;;;;6.75;1.80;;;16.00;99.90;;;;;;5073844;28;20040;-66
2023/10/04 09:48:31;;;;;;;6.03;2.30;;;16.10;99.90;;;;;;5073701;28;20044;-66
2023/10/04 09:51:01;;;;;;;5.05;1.45;;;16.20;99.90;;;;;;5074021;28;20386;-66
2023/10/04 09:53:30;;;;;;;6.85;2.00;;;16.20;99.90;;;;;;5072698;28;20048;-67
2023/10/04 09:56:02;;;;;;;4.97;1.95;;;16.30;99.90;;;;;;5073599;28;20049;-67
2023/10/04 09:58:30;;;;;;;7.80;2.45;;;16.40;99.90;;;;;;5074314;28;20063;-66
2023/10/04 10:01:02;;;;;;;5.75;2.00;;;16.60;99.90;;;;;;5073677;28;20090;-67
2023/10/04 10:03:32;;;;;;;8.38;2.30;;;16.70;99.90;;;;;;5073829;28;20397;-67
2023/10/04 10:05:59;;;;;;;4.18;1.63;;;16.90;99.90;;;;;;5072180;28;20051;-67
2023/10/04 10:08:34;;;;;;;5.32;1.85;;;17.00;99.90;;;;;;5073197;28;20091;-66
2023/10/04 10:11:02;;;;;;;5.15;2.00;;;17.10;99.90;;;;;;5073164;28;20052;-68
2023/10/04 10:13:30;;;;;;;5.63;2.40;;;17.20;99.90;;;;;;5073315;28;20529;-67
2023/10/04 10:15:56;;;;;;;5.45;2.30;;;17.30;99.90;;;;;;5073405;28;20058;-66
2023/10/04 10:18:22;;;;;;;6.38;1.92;;;17.20;99.90;;;;;;5073267;28;20040;-66
2023/10/04 10:20:48;;;;;;;4.75;2.30;;;17.10;99.90;;;;;;5073803;28;20061;-66
2023/10/04 10:23:15;;;;;;;6.07;2.20;;;16.90;99.90;;;;;;5072141;28;20049;-66
2023/10/04 10:26:00;;;;;;;7.18;2.10;;;16.90;99.90;;;;;;5073878;28;20052;-66
2023/10/04 10:28:26;;;;;;;6.73;2.13;;;16.80;99.90;;;;;;5073031;28;20037;-66
2023/10/04 10:31:01;;;;;;;6.28;2.50;;;16.80;99.90;;;;;;5073234;28;20549;-66
2023/10/04 10:33:26;;;;;;;7.88;2.13;;;16.80;99.90;;;;;;5073129;28;20048;-66
2023/10/04 10:35:59;;;;;;;4.43;1.90;;;16.70;99.90;;;;;;5072904;28;20132;-67
2023/10/04 10:38:39;;;;;;;6.95;2.03;;;16.60;99.90;;;;;;5073257;28;20083;-66
2023/10/04 10:41:06;;;;;;;6.15;2.60;;;16.50;99.90;;;;;;5073097;28;20048;-66
2023/10/04 10:43:35;;;;;;;7.22;2.03;;;16.40;99.90;;;;;;5072591;28;20109;-65
2023/10/04 10:46:26;;;;;;;7.28;2.00;;;16.30;99.90;;;;;;5071824;28;20084;-65
2023/10/04 10:48:57;;;;;;;6.97;2.28;;;16.20;99.90;;;;;;5073088;28;20037;-65
2023/10/04 10:51:42;;;;;;;6.72;2.42;;;16.10;99.90;;;;;;5072921;28;20053;-66
2023/10/04 10:54:08;;;;;;;6.43;1.55;;;16.10;99.90;;;;;;5073285;28;20443;-67
2023/10/04 10:56:37;;;;;;;7.53;2.38;;;16.10;99.90;;;;;;5073011;28;20048;-67
2023/10/04 10:59:07;;;;;;;5.57;2.20;;;16.10;99.90;;;;;;5073297;28;20080;-67
2023/10/04 11:01:33;;;;;;;5.25;2.20;;;16.20;99.90;;;;;;5072517;28;20485;-67
2023/10/04 11:04:01;;;;;;;5.90;2.50;;;16.30;99.90;;;;;;5072859;28;20045;-66
2023/10/04 11:06:27;;;;;;;6.38;2.22;;;16.30;99.90;;;;;;5072757;28;20045;-66
2023/10/04 11:08:55;;;;;;;6.32;2.25;;;16.40;99.90;;;;;;5072682;28;20044;-66
2023/10/04 11:11:25;;;;;;;5.32;2.40;;;16.30;99.90;;;;;;5072859;28;20053;-66
2023/10/04 11:13:50;;;;;;;5.85;2.08;;;16.30;99.90;;;;;;5075836;28;20048;-67
2023/10/04 11:16:19;;;;;;;7.50;2.45;;;16.30;99.90;;;;;;5075386;28;20094;-66
2023/10/04 11:18:48;;;;;;;8.20;2.45;;;16.20;99.90;;;;;;5077005;28;20401;-66
2023/10/04 11:21:14;;;;;;;5.68;2.38;;;16.20;99.90;;;;;;5075261;28;20048;-66
2023/10/04 11:23:40;;;;;;;5.00;2.20;;;16.20;99.90;;;;;;5075331;28;20095;-66
2023/10/04 11:26:08;;;;;;;8.40;2.60;;;16.20;99.90;;;;;;5076461;28;20048;-65
2023/10/04 11:28:35;;;;;;;4.90;2.33;;;16.20;99.90;;;;;;5076328;28;20052;-66
2023/10/04 11:31:01;;;;;;;5.55;2.10;;;16.20;99.90;;;;;;5076335;28;20071;-67
2023/10/04 11:33:27;;;;;;;6.50;2.70;;;16.20;99.90;;;;;;5076267;28;20431;-67
2023/10/04 11:35:53;;;;;;;6.35;2.65;;;16.20;99.90;;;;;;5076273;28;20094;-67
2023/10/04 11:38:23;;;;;;;7.07;2.58;;;16.20;99.90;;;;;;5076011;28;20465;-67
2023/10/04 11:40:51;;;;;;;7.40;2.13;;;16.20;99.90;;;;;;5076363;28;20036;-65
2023/10/04 11:43:17;;;;;;;6.60;2.83;;;16.20;99.90;;;;;;5076191;28;20083;-66
2023/10/04 11:45:43;;;;;;;7.32;2.10;;;16.20;99.90;;;;;;5076638;28;20049;-66
2023/10/04 11:48:10;;;;;;;7.50;2.60;;;16.20;99.90;;;;;;5075523;28;20052;-66
2023/10/04 11:50:50;;;;;;;5.95;2.42;;;16.20;99.90;;;;;;5075875;28;20052;-66
2023/10/04 11:53:38;;;;;;;7.57;2.95;;;16.20;99.90;;;;;;5075993;28;20126;-66
2023/10/04 11:56:07;;;;;;;7.63;2.65;;;16.20;99.90;;;;;;5075844;28;20044;-66
2023/10/04 11:58:49;;;;;;;7.28;2.30;;;16.20;99.90;;;;;;5075700;28;20055;-66
2023/10/04 12:01:20;;;;;;;6.30;2.47;;;16.30;99.90;;;;;;5075894;28;20553;-66
2023/10/04 12:04:04;;;;;;;6.15;2.83;;;16.30;99.90;;;;;;5076122;28;20432;-66
2023/10/04 12:06:30;;;;;;;6.10;2.20;;;16.30;99.90;;;;;;5076333;28;20113;-67
2023/10/04 12:08:58;;;;;;;6.25;2.35;;;16.30;99.90;;;;;;5074367;28;20103;-66
2023/10/04 12:11:25;;;;;;;5.35;1.92;;;16.30;99.90;;;;;;5076074;28;20105;-66
2023/10/04 12:13:51;;;;;;;5.82;1.92;;;16.20;99.90;;;;;;5075588;28;20056;-67
2023/10/04 12:16:17;;;;;;;9.60;2.10;;;16.20;99.90;;;;;;5075507;28;20048;-66
2023/10/04 12:18:44;;;;;;;5.45;2.70;;;16.20;99.90;;;;;;5075340;28;20052;-65
2023/10/04 12:21:11;;;;;;;5.38;2.45;;;16.10;99.90;;;;;;5075821;28;20076;-65
2023/10/04 12:23:36;;;;;;;7.72;2.70;;;16.10;99.90;;;;;;5075185;28;20497;-65
2023/10/04 12:26:04;;;;;;;10.57;3.08;;;16.10;99.90;;;;;;5075318;28;20076;-65
2023/10/04 12:28:29;;;;;;;5.22;1.90;;;16.10;99.90;;;;;;5075247;28;20044;-66
2023/10/04 12:31:01;;;;;;;7.28;2.47;;;16.10;99.90;;;;;;5075334;28;20397;-66
2023/10/04 12:33:29;;;;;;;6.10;2.28;;;16.10;99.90;;;;;;5075363;28;20059;-66
2023/10/04 12:35:56;;;;;;;5.80;2.45;;;16.10;99.90;;;;;;5075094;28;20119;-65
2023/10/04 12:38:24;;;;;;;4.25;2.05;;;16.10;99.90;;;;;;5074984;28;20045;-66
2023/10/04 12:40:50;;;;;;;6.28;2.33;;;16.20;99.90;;;;;;5074799;28;20041;-66
2023/10/04 12:43:16;;;;;;;9.50;3.55;;;16.20;99.90;;;;;;5074731;28;20052;-67
2023/10/04 12:45:42;;;;;;;6.30;2.30;;;16.20;99.90;;;;;;5074679;28;20131;-66
2023/10/04 12:48:08;;;;;;;5.55;2.53;;;16.20;99.90;;;;;;5074727;28;20052;-66
2023/10/04 12:50:35;;;;;;;7.90;2.20;;;16.30;99.90;;;;;;5074696;28;20049;-65
2023/10/04 12:53:01;;;;;;;7.97;2.40;;;16.30;99.90;;;;;;5075219;28;20090;-67
2023/10/04 12:55:27;;;;;;;7.03;2.50;;;16.30;99.90;;;;;;5074617;28;20462;-66
2023/10/04 12:57:53;;;;;;;6.75;2.55;;;16.40;99.90;;;;;;5075144;28;20044;-66
2023/10/04 13:00:25;;;;;;;5.50;2.13;;;16.40;99.90;;;;;;5074526;28;20496;-65